createdAt,value
2023-02-19T00:02:05.884Z,-1.24
2023-02-19T00:04:34.543Z,-1.27
2023-02-19T00:07:04.422Z,-1.23
2023-02-19T00:09:32.936Z,-1.24
2023-02-19T00:12:01.478Z,-1.26
2023-02-19T00:14:30.373Z,-1.24
2023-02-19T00:16:59.004Z,-1.22
2023-02-19T00:19:27.586Z,-1.20
2023-02-19T00:21:56.431Z,-1.21
2023-02-19T00:24:26.437Z,-1.22
2023-02-19T00:26:54.911Z,-1.24
2023-02-19T00:29:25.249Z,-1.24
2023-02-19T00:31:53.939Z,-1.24
2023-02-19T00:34:22.531Z,-1.25
2023-02-19T00:36:50.998Z,-1.26
2023-02-19T00:39:21.634Z,-1.27
2023-02-19T00:41:51.766Z,-1.29
2023-02-19T00:44:20.393Z,-1.28
2023-02-19T00:46:50.345Z,-1.28
2023-02-19T00:49:21.637Z,-1.30
2023-02-19T00:51:51.702Z,-1.32
2023-02-19T00:54:23.787Z,-1.31
2023-02-19T00:56:53.838Z,-1.34
2023-02-19T00:59:22.403Z,-1.35
2023-02-19T01:01:51.088Z,-1.36
2023-02-19T01:04:19.868Z,-1.36
2023-02-19T01:06:49.169Z,-1.34
2023-02-19T01:09:17.712Z,-1.37
2023-02-19T01:11:46.642Z,-1.38
2023-02-19T01:14:16.903Z,-1.39
2023-02-19T01:16:45.672Z,-1.40
2023-02-19T01:19:14.287Z,-1.43
2023-02-19T01:21:43.064Z,-1.44
2023-02-19T01:24:12.414Z,-1.45
2023-02-19T01:26:41.873Z,-1.46
2023-02-19T01:29:10.545Z,-1.45
2023-02-19T01:31:42.454Z,-1.45
2023-02-19T01:34:13.177Z,-1.44
2023-02-19T01:36:42.665Z,-1.44
2023-02-19T01:39:12.753Z,-1.44
2023-02-19T01:41:43.380Z,-1.43
2023-02-19T01:44:44.946Z,-1.43
2023-02-19T01:47:19.096Z,-1.44
2023-02-19T01:49:52.245Z,-1.44
2023-02-19T01:52:26.217Z,-1.43
2023-02-19T01:54:56.390Z,-1.43
2023-02-19T01:57:28.029Z,-1.46
2023-02-19T02:00:00.199Z,-1.45
2023-02-19T02:02:31.839Z,-1.48
2023-02-19T02:05:01.693Z,-1.49
2023-02-19T02:07:47.719Z,-1.51
2023-02-19T02:10:22.259Z,-1.53
2023-02-19T02:12:52.032Z,-1.55
2023-02-19T02:15:22.476Z,-1.55
2023-02-19T02:17:58.287Z,-1.58
2023-02-19T02:20:38.327Z,-1.57
2023-02-19T02:23:17.919Z,-1.61
2023-02-19T02:26:11.542Z,-1.61
2023-02-19T02:29:05.932Z,-1.61
2023-02-19T02:31:43.422Z,-1.62
2023-02-19T02:34:16.588Z,-1.63
2023-02-19T02:36:48.671Z,-1.62
2023-02-19T02:39:21.464Z,-1.65
2023-02-19T02:42:14.398Z,-1.69
2023-02-19T02:45:07.923Z,-1.70
2023-02-19T02:47:46.419Z,-1.69
2023-02-19T02:50:20.160Z,-1.68
2023-02-19T02:53:09.650Z,-1.71
2023-02-19T02:55:43.002Z,-1.70
2023-02-19T02:58:14.068Z,-1.68
2023-02-19T03:01:03.739Z,-1.69
2023-02-19T03:03:36.469Z,-1.69
2023-02-19T03:06:08.194Z,-1.71
2023-02-19T03:08:41.043Z,-1.72
2023-02-19T03:11:30.433Z,-1.75
2023-02-19T03:14:25.022Z,-1.74
2023-02-19T03:17:19.448Z,-1.78
2023-02-19T03:19:52.469Z,-1.79
2023-02-19T03:22:26.027Z,-1.79
2023-02-19T03:25:15.416Z,-1.79
2023-02-19T03:27:48.031Z,-1.80
2023-02-19T03:30:21.152Z,-1.80
2023-02-19T03:32:53.527Z,-1.81
2023-02-19T03:35:27.689Z,-1.79
2023-02-19T03:38:03.926Z,-1.78
2023-02-19T03:40:40.481Z,-1.78
2023-02-19T03:43:19.734Z,-1.79
2023-02-19T03:45:58.786Z,-1.77
2023-02-19T03:48:34.951Z,-1.78
2023-02-19T03:51:32.562Z,-1.76
2023-02-19T03:54:11.476Z,-1.78
2023-02-19T03:56:47.182Z,-1.79
2023-02-19T03:59:20.668Z,-1.80
2023-02-19T04:01:52.865Z,-1.81
2023-02-19T04:04:27.337Z,-1.81
2023-02-19T04:06:59.085Z,-1.81
2023-02-19T04:09:37.532Z,-1.83
2023-02-19T04:12:14.298Z,-1.87
2023-02-19T04:14:50.671Z,-1.89
2023-02-19T04:17:28.130Z,-1.88
2023-02-19T04:20:00.936Z,-1.92
2023-02-19T04:22:31.945Z,-1.96
2023-02-19T04:25:01.121Z,-1.98
2023-02-19T04:27:37.162Z,-2.00
2023-02-19T04:30:07.490Z,-1.99
2023-02-19T04:32:38.607Z,-2.01
2023-02-19T04:35:10.962Z,-1.99
2023-02-19T04:37:41.162Z,-1.98
2023-02-19T04:40:11.382Z,-1.97
2023-02-19T04:42:40.245Z,-1.95
2023-02-19T04:45:09.869Z,-1.92
2023-02-19T04:47:38.533Z,-1.91
2023-02-19T04:50:08.084Z,-1.92
2023-02-19T04:52:40.013Z,-1.93
2023-02-19T04:55:11.105Z,-1.93
2023-02-19T04:57:39.881Z,-1.90
2023-02-19T05:00:10.684Z,-1.89
2023-02-19T05:02:44.608Z,-1.86
2023-02-19T05:05:13.464Z,-1.87
2023-02-19T05:07:42.086Z,-1.83
2023-02-19T05:10:12.467Z,-1.84
2023-02-19T05:12:41.233Z,-1.86
2023-02-19T05:15:10.211Z,-1.90
2023-02-19T05:17:38.937Z,-1.90
2023-02-19T05:20:08.754Z,-1.91
2023-02-19T05:22:40.276Z,-1.99
2023-02-19T05:25:09.373Z,-1.95
2023-02-19T05:27:39.487Z,-1.96
2023-02-19T05:30:09.244Z,-1.95
2023-02-19T05:32:40.068Z,-2.00
2023-02-19T05:35:09.012Z,-2.00
2023-02-19T05:37:37.528Z,-1.99
2023-02-19T05:40:09.291Z,-1.97
2023-02-19T05:42:39.556Z,-1.97
2023-02-19T05:45:09.411Z,-1.99
2023-02-19T05:47:38.178Z,-1.99
2023-02-19T05:50:09.784Z,-2.01
2023-02-19T05:52:38.664Z,-2.02
2023-02-19T05:55:07.985Z,-2.01
2023-02-19T05:57:43.971Z,-2.03
2023-02-19T06:00:17.803Z,-2.03
2023-02-19T06:02:48.298Z,-2.08
2023-02-19T06:05:17.241Z,-2.10
2023-02-19T06:07:50.676Z,-2.13
2023-02-19T06:10:20.259Z,-2.16
2023-02-19T06:12:55.526Z,-2.16
2023-02-19T06:15:24.522Z,-2.17
2023-02-19T06:17:53.334Z,-2.21
2023-02-19T06:20:22.708Z,-2.21
2023-02-19T06:22:52.066Z,-2.25
2023-02-19T06:25:21.530Z,-2.29
2023-02-19T06:27:51.739Z,-2.30
2023-02-19T06:30:25.726Z,-2.28
2023-02-19T06:32:55.214Z,-2.27
2023-02-19T06:35:24.201Z,-2.26
2023-02-19T06:37:53.656Z,-2.23
2023-02-19T06:40:22.341Z,-2.23
2023-02-19T06:42:52.667Z,-2.23
2023-02-19T06:45:21.906Z,-2.27
2023-02-19T06:47:53.300Z,-2.28
2023-02-19T06:50:22.022Z,-2.28
2023-02-19T06:52:50.751Z,-2.27
2023-02-19T06:55:19.539Z,-2.28
2023-02-19T06:57:48.182Z,-2.27
2023-02-19T07:00:19.389Z,-2.27
2023-02-19T07:02:56.676Z,-2.27
2023-02-19T07:05:25.705Z,-2.26
2023-02-19T07:07:54.378Z,-2.26
2023-02-19T07:10:23.074Z,-2.28
2023-02-19T07:12:51.999Z,-2.29
2023-02-19T07:15:22.188Z,-2.28
2023-02-19T07:17:50.984Z,-2.29
2023-02-19T07:20:19.869Z,-2.28
2023-02-19T07:22:48.602Z,-2.27
2023-02-19T07:25:17.604Z,-2.29
2023-02-19T07:27:46.281Z,-2.30
2023-02-19T07:30:15.391Z,-2.27
2023-02-19T07:32:46.053Z,-2.29
2023-02-19T07:35:14.704Z,-2.26
2023-02-19T07:37:43.606Z,-2.29
2023-02-19T07:40:12.658Z,-2.26
2023-02-19T07:42:41.717Z,-2.31
2023-02-19T07:45:10.614Z,-2.28
2023-02-19T07:47:39.300Z,-2.30
2023-02-19T07:50:14.039Z,-2.29
2023-02-19T07:52:43.874Z,-2.27
2023-02-19T07:55:12.495Z,-2.24
2023-02-19T07:57:41.743Z,-2.26
2023-02-19T08:00:11.599Z,-2.21
2023-02-19T08:03:02.796Z,-2.19
2023-02-19T08:05:39.389Z,-2.16
2023-02-19T08:08:09.457Z,-2.17
2023-02-19T08:10:55.422Z,-2.23
2023-02-19T08:13:25.695Z,-2.24
2023-02-19T08:16:15.961Z,-2.25
2023-02-19T08:18:48.057Z,-2.22
2023-02-19T08:21:21.100Z,-2.21
2023-02-19T08:23:51.244Z,-2.25
2023-02-19T08:26:20.220Z,-2.23
2023-02-19T08:28:50.157Z,-2.22
2023-02-19T08:31:18.720Z,-2.26
2023-02-19T08:33:47.392Z,-2.24
2023-02-19T08:36:15.817Z,-2.26
2023-02-19T08:38:45.853Z,-2.22
2023-02-19T08:41:15.807Z,-2.21
2023-02-19T08:43:44.961Z,-2.21
2023-02-19T08:46:13.852Z,-2.19
2023-02-19T08:48:42.770Z,-2.16
2023-02-19T08:51:12.950Z,-2.16
2023-02-19T08:53:42.812Z,-2.14
2023-02-19T08:56:14.889Z,-2.14
2023-02-19T08:58:44.216Z,-2.11
2023-02-19T09:01:14.571Z,-2.09
2023-02-19T09:03:44.492Z,-2.15
2023-02-19T09:06:16.421Z,-2.16
2023-02-19T09:08:45.117Z,-2.10
2023-02-19T09:11:15.773Z,-2.08
2023-02-19T09:13:45.099Z,-2.12
2023-02-19T09:16:14.330Z,-2.11
2023-02-19T09:18:42.894Z,-2.08
2023-02-19T09:21:11.715Z,-2.07
2023-02-19T09:23:40.462Z,-2.05
2023-02-19T09:26:10.421Z,-2.01
2023-02-19T09:28:42.331Z,-2.00
2023-02-19T09:31:13.445Z,-2.00
2023-02-19T09:33:44.901Z,-2.01
2023-02-19T09:36:13.581Z,-2.01
2023-02-19T09:38:42.238Z,-2.02
2023-02-19T09:41:16.758Z,-1.97
2023-02-19T09:43:47.355Z,-1.98
2023-02-19T09:46:26.758Z,-1.95
2023-02-19T09:49:00.393Z,-1.88
2023-02-19T09:51:30.437Z,-1.91
2023-02-19T09:53:59.637Z,-1.86
2023-02-19T09:56:29.331Z,-1.83
2023-02-19T09:59:01.651Z,-1.87
2023-02-19T10:01:34.966Z,-1.83
2023-02-19T10:04:04.109Z,-1.80
2023-02-19T10:06:36.505Z,-1.80
2023-02-19T10:09:20.439Z,-1.78
2023-02-19T10:11:51.078Z,-1.78
2023-02-19T10:14:30.290Z,-1.72
2023-02-19T10:17:00.893Z,-1.69
2023-02-19T10:19:29.792Z,-1.65
2023-02-19T10:21:58.943Z,-1.65
2023-02-19T10:24:30.646Z,-1.65
2023-02-19T10:26:59.631Z,-1.64
2023-02-19T10:29:29.836Z,-1.65
2023-02-19T10:32:17.444Z,-1.59
2023-02-19T10:34:49.339Z,-1.61
2023-02-19T10:37:20.125Z,-1.63
2023-02-19T10:39:51.141Z,-1.55
2023-02-19T10:42:22.491Z,-1.61
2023-02-19T10:44:58.748Z,-1.59
2023-02-19T10:47:30.039Z,-1.56
2023-02-19T10:50:03.317Z,-1.59
2023-02-19T10:52:38.177Z,-1.61
2023-02-19T10:55:18.688Z,-1.71
2023-02-19T10:57:47.559Z,-1.68
2023-02-19T11:00:27.020Z,-1.70
2023-02-19T11:03:15.674Z,-1.67
2023-02-19T11:05:57.032Z,-1.65
2023-02-19T11:08:26.189Z,-1.66
2023-02-19T11:10:54.953Z,-1.64
2023-02-19T11:13:31.367Z,-1.63
2023-02-19T11:16:01.974Z,-1.61
2023-02-19T11:18:45.383Z,-1.56
2023-02-19T11:21:28.846Z,-1.50
2023-02-19T11:23:58.665Z,-1.45
2023-02-19T11:26:32.327Z,-1.44
2023-02-19T11:29:02.724Z,-1.46
2023-02-19T11:31:36.291Z,-1.43
2023-02-19T11:34:31.108Z,-1.47
2023-02-19T11:37:15.169Z,-1.45
2023-02-19T11:39:46.711Z,-1.45
2023-02-19T11:42:44.304Z,-1.47
2023-02-19T11:45:29.973Z,-1.48
2023-02-19T11:48:24.333Z,-1.45
2023-02-19T11:51:14.361Z,-1.49
2023-02-19T11:53:49.947Z,-1.45
2023-02-19T11:56:26.688Z,-1.47
2023-02-19T11:59:06.533Z,-1.44
2023-02-19T12:02:16.642Z,-1.41
2023-02-19T12:05:31.179Z,-1.40
2023-02-19T12:08:31.170Z,-1.38
2023-02-19T12:11:14.669Z,-1.35
2023-02-19T12:14:03.386Z,-1.39
2023-02-19T12:16:43.849Z,-1.38
2023-02-19T12:19:45.087Z,-1.38
2023-02-19T12:22:28.152Z,-1.39
2023-02-19T12:25:35.483Z,-1.35
2023-02-19T12:28:29.247Z,-1.36
2023-02-19T12:31:15.218Z,-1.36
2023-02-19T12:34:05.242Z,-1.38
2023-02-19T12:36:42.179Z,-1.39
2023-02-19T12:39:23.765Z,-1.38
2023-02-19T12:42:02.704Z,-1.37
2023-02-19T12:44:42.421Z,-1.41
2023-02-19T12:47:17.739Z,-1.45
2023-02-19T12:49:52.318Z,-1.45
2023-02-19T12:52:26.078Z,-1.47
2023-02-19T12:55:00.645Z,-1.48
2023-02-19T12:57:34.219Z,-1.47
2023-02-19T13:00:09.331Z,-1.49
2023-02-19T13:02:45.902Z,-1.49
2023-02-19T13:05:26.103Z,-1.50
2023-02-19T13:08:01.915Z,-1.52
2023-02-19T13:10:39.437Z,-1.48
2023-02-19T13:13:13.990Z,-1.47
2023-02-19T13:15:46.581Z,-1.48
2023-02-19T13:18:20.487Z,-1.50
2023-02-19T13:20:51.939Z,-1.48
2023-02-19T13:23:43.984Z,-1.50
2023-02-19T13:26:50.630Z,-1.50
2023-02-19T13:29:31.244Z,-1.49
2023-02-19T13:32:18.562Z,-1.47
2023-02-19T13:34:59.867Z,-1.49
2023-02-19T13:37:28.745Z,-1.46
2023-02-19T13:39:58.641Z,-1.46
2023-02-19T13:42:32.738Z,-1.44
2023-02-19T13:45:03.248Z,-1.44
2023-02-19T13:47:50.187Z,-1.45
2023-02-19T13:50:22.786Z,-1.43
2023-02-19T13:52:52.052Z,-1.43
2023-02-19T13:55:56.065Z,-1.45
2023-02-19T13:58:58.050Z,-1.46
2023-02-19T14:02:14.786Z,-1.47
2023-02-19T14:04:47.829Z,-1.51
2023-02-19T14:07:45.125Z,-1.53
2023-02-19T14:10:35.811Z,-1.52
2023-02-19T14:13:04.486Z,-1.54
2023-02-19T14:15:46.364Z,-1.55
2023-02-19T14:18:46.829Z,-1.56
2023-02-19T14:21:25.854Z,-1.57
2023-02-19T14:23:57.363Z,-1.58
2023-02-19T14:26:27.681Z,-1.57
2023-02-19T14:28:56.505Z,-1.57
2023-02-19T14:31:31.772Z,-1.59
2023-02-19T14:34:03.851Z,-1.60
2023-02-19T14:36:45.684Z,-1.57
2023-02-19T14:39:18.164Z,-1.57
2023-02-19T14:41:50.100Z,-1.58
2023-02-19T14:44:25.096Z,-1.58
2023-02-19T14:47:00.411Z,-1.58
2023-02-19T14:49:35.026Z,-1.61
2023-02-19T14:52:07.929Z,-1.61
2023-02-19T14:54:43.633Z,-1.63
2023-02-19T14:57:18.022Z,-1.63
2023-02-19T15:00:01.195Z,-1.62
2023-02-19T15:02:33.981Z,-1.63
2023-02-19T15:05:02.737Z,-1.63
2023-02-19T15:07:35.089Z,-1.64
2023-02-19T15:10:06.284Z,-1.63
2023-02-19T15:12:44.939Z,-1.63
2023-02-19T15:15:20.142Z,-1.64
2023-02-19T15:17:51.844Z,-1.64
2023-02-19T15:20:24.599Z,-1.66
2023-02-19T15:22:54.400Z,-1.69
2023-02-19T15:25:25.506Z,-1.72
2023-02-19T15:27:54.299Z,-1.75
2023-02-19T15:30:25.498Z,-1.76
2023-02-19T15:32:58.191Z,-1.75
2023-02-19T15:35:29.362Z,-1.77
2023-02-19T15:37:57.895Z,-1.77
2023-02-19T15:40:30.582Z,-1.79
2023-02-19T15:43:01.795Z,-1.78
2023-02-19T15:45:32.878Z,-1.79
2023-02-19T15:48:08.813Z,-1.78
2023-02-19T15:50:44.286Z,-1.76
2023-02-19T15:53:17.642Z,-1.76
2023-02-19T15:55:56.188Z,-1.78
2023-02-19T15:58:32.778Z,-1.75
2023-02-19T16:01:06.420Z,-1.75
2023-02-19T16:03:37.500Z,-1.76
2023-02-19T16:06:10.836Z,-1.77
2023-02-19T16:08:41.119Z,-1.79
2023-02-19T16:11:28.959Z,-1.79
2023-02-19T16:14:20.256Z,-1.79
2023-02-19T16:16:52.023Z,-1.81
2023-02-19T16:19:28.552Z,-1.81
2023-02-19T16:21:58.662Z,-1.81
2023-02-19T16:24:32.058Z,-1.81
2023-02-19T16:27:02.293Z,-1.84
2023-02-19T16:29:35.077Z,-1.85
2023-02-19T16:32:06.568Z,-1.85
2023-02-19T16:34:50.709Z,-1.88
2023-02-19T16:37:40.840Z,-1.91
2023-02-19T16:41:03.276Z,-1.88
2023-02-19T16:43:50.655Z,-1.89
2023-02-19T16:46:27.730Z,-1.91
2023-02-19T16:48:56.458Z,-1.88
2023-02-19T16:51:28.881Z,-1.87
2023-02-19T16:54:01.807Z,-1.85
2023-02-19T16:56:31.462Z,-1.85
2023-02-19T16:59:01.040Z,-1.85
2023-02-19T17:01:30.458Z,-1.86
2023-02-19T17:04:04.528Z,-1.86
2023-02-19T17:06:35.071Z,-1.84
2023-02-19T17:09:04.345Z,-1.92
2023-02-19T17:11:36.109Z,-1.86
2023-02-19T17:14:05.125Z,-1.85
2023-02-19T17:16:40.082Z,-1.87
2023-02-19T17:19:13.790Z,-1.88
2023-02-19T17:21:44.561Z,-1.90
2023-02-19T17:24:13.775Z,-1.89
2023-02-19T17:26:42.772Z,-1.89
2023-02-19T17:29:16.092Z,-1.89
2023-02-19T17:31:45.197Z,-1.87
2023-02-19T17:34:13.844Z,-1.88
2023-02-19T17:36:45.868Z,-1.89
2023-02-19T17:39:16.547Z,-1.98
2023-02-19T17:41:48.321Z,-1.96
2023-02-19T17:44:17.465Z,-2.04
2023-02-19T17:46:48.958Z,-2.09
2023-02-19T17:49:17.733Z,-2.12
2023-02-19T17:51:48.347Z,-2.21
2023-02-19T17:54:25.191Z,-2.29
2023-02-19T17:56:54.036Z,-2.25
2023-02-19T17:59:23.076Z,-2.37
2023-02-19T18:01:51.871Z,-2.40
2023-02-19T18:04:27.148Z,-2.44
2023-02-19T18:07:00.434Z,-2.43
2023-02-19T18:09:29.350Z,-2.52
2023-02-19T18:12:00.913Z,-2.47
2023-02-19T18:14:32.648Z,-2.46
2023-02-19T18:17:02.616Z,-2.49
2023-02-19T18:19:34.174Z,-2.49
2023-02-19T18:22:06.521Z,-2.50
2023-02-19T18:24:38.371Z,-2.55
2023-02-19T18:27:07.284Z,-2.57
2023-02-19T18:29:35.913Z,-2.59
2023-02-19T18:32:04.668Z,-2.61
2023-02-19T18:34:33.245Z,-2.62
2023-02-19T18:37:01.889Z,-2.62
2023-02-19T18:39:32.033Z,-2.65
2023-02-19T18:42:01.278Z,-2.65
2023-02-19T18:44:29.779Z,-2.63
2023-02-19T18:46:58.440Z,-2.69
2023-02-19T18:49:26.949Z,-2.75
2023-02-19T18:51:55.441Z,-2.75
2023-02-19T18:54:25.185Z,-2.76
2023-02-19T18:56:55.311Z,-2.72
2023-02-19T18:59:24.345Z,-2.77
2023-02-19T19:01:53.129Z,-2.77
2023-02-19T19:04:21.677Z,-2.81
2023-02-19T19:06:50.294Z,-2.74
2023-02-19T19:09:18.920Z,-2.75
2023-02-19T19:11:47.891Z,-2.72
2023-02-19T19:14:18.030Z,-2.72
2023-02-19T19:16:46.636Z,-2.73
2023-02-19T19:19:16.015Z,-2.70
2023-02-19T19:21:44.637Z,-2.70
2023-02-19T19:24:13.890Z,-2.67
2023-02-19T19:26:46.090Z,-2.69
2023-02-19T19:29:16.360Z,-2.67
2023-02-19T19:31:47.166Z,-2.70
2023-02-19T19:34:16.272Z,-2.71
2023-02-19T19:36:45.293Z,-2.69
2023-02-19T19:39:14.292Z,-2.69
2023-02-19T19:41:42.867Z,-2.70
2023-02-19T19:44:11.632Z,-2.70
2023-02-19T19:46:46.721Z,-2.67
2023-02-19T19:49:19.119Z,-2.70
2023-02-19T19:51:47.873Z,-2.67
2023-02-19T19:54:16.973Z,-2.66
2023-02-19T19:56:47.456Z,-2.69
2023-02-19T19:59:17.606Z,-2.69
2023-02-19T20:01:51.552Z,-2.69
2023-02-19T20:04:21.461Z,-2.73
2023-02-19T20:06:50.329Z,-2.73
2023-02-19T20:09:19.739Z,-2.74
2023-02-19T20:11:49.909Z,-2.75
2023-02-19T20:14:19.606Z,-2.76
2023-02-19T20:16:48.628Z,-2.76
2023-02-19T20:19:20.766Z,-2.84
2023-02-19T20:21:50.379Z,-2.83
2023-02-19T20:24:21.011Z,-2.82
2023-02-19T20:26:49.763Z,-2.89
2023-02-19T20:29:18.484Z,-2.86
2023-02-19T20:31:51.186Z,-2.94
2023-02-19T20:34:21.628Z,-2.92
2023-02-19T20:36:50.809Z,-2.96
2023-02-19T20:39:21.561Z,-2.97
2023-02-19T20:41:52.291Z,-3.02
2023-02-19T20:44:21.744Z,-3.05
2023-02-19T20:46:52.583Z,-3.02
2023-02-19T20:49:25.004Z,-2.97
2023-02-19T20:51:55.354Z,-3.06
2023-02-19T20:54:25.749Z,-3.06
2023-02-19T20:56:57.612Z,-3.13
2023-02-19T20:59:30.698Z,-3.15
2023-02-19T21:01:59.973Z,-3.17
2023-02-19T21:04:29.972Z,-3.21
2023-02-19T21:06:58.580Z,-3.20
2023-02-19T21:09:27.096Z,-3.16
2023-02-19T21:11:55.522Z,-3.17
2023-02-19T21:14:23.982Z,-3.16
2023-02-19T21:16:52.402Z,-3.14
2023-02-19T21:19:20.985Z,-3.19
2023-02-19T21:21:50.948Z,-3.22
2023-02-19T21:24:19.453Z,-3.25
2023-02-19T21:26:47.939Z,-3.25
2023-02-19T21:29:19.171Z,-3.25
2023-02-19T21:31:49.577Z,-3.23
2023-02-19T21:34:20.012Z,-3.16
2023-02-19T21:36:48.843Z,-3.20
2023-02-19T21:39:20.788Z,-3.24
2023-02-19T21:41:49.693Z,-3.26
2023-02-19T21:44:18.298Z,-3.29
2023-02-19T21:46:46.775Z,-3.27
2023-02-19T21:49:15.540Z,-3.21
2023-02-19T21:51:45.894Z,-3.22
2023-02-19T21:54:16.745Z,-3.23
2023-02-19T21:56:47.036Z,-3.24
2023-02-19T21:59:16.004Z,-3.31
2023-02-19T22:01:44.986Z,-3.34
2023-02-19T22:04:15.801Z,-3.35
2023-02-19T22:06:44.639Z,-3.32
2023-02-19T22:09:14.436Z,-3.37
2023-02-19T22:11:42.930Z,-3.35
2023-02-19T22:14:12.988Z,-3.38
2023-02-19T22:16:41.633Z,-3.40
2023-02-19T22:19:12.269Z,-3.45
2023-02-19T22:21:44.506Z,-3.45
2023-02-19T22:24:18.165Z,-3.40
2023-02-19T22:26:47.175Z,-3.46
2023-02-19T22:29:17.780Z,-3.40
2023-02-19T22:31:46.537Z,-3.46
2023-02-19T22:34:15.790Z,-3.44
2023-02-19T22:36:44.982Z,-3.44
2023-02-19T22:39:20.057Z,-3.52
2023-02-19T22:41:49.007Z,-3.47
2023-02-19T22:44:19.360Z,-3.47
2023-02-19T22:46:49.945Z,-3.44
2023-02-19T22:49:19.129Z,-3.44
2023-02-19T22:51:54.924Z,-3.46
2023-02-19T22:54:27.058Z,-3.42
2023-02-19T22:56:56.329Z,-3.47
2023-02-19T22:59:26.298Z,-3.53
2023-02-19T23:01:55.021Z,-3.48
2023-02-19T23:04:25.452Z,-3.49
2023-02-19T23:06:54.352Z,-3.47
2023-02-19T23:09:25.813Z,-3.54
2023-02-19T23:11:55.227Z,-3.53
2023-02-19T23:14:24.502Z,-3.57
2023-02-19T23:16:54.562Z,-3.52
2023-02-19T23:19:24.751Z,-3.47
2023-02-19T23:21:53.784Z,-3.42
2023-02-19T23:24:22.465Z,-3.44
2023-02-19T23:26:53.106Z,-3.42
2023-02-19T23:29:25.247Z,-3.47
2023-02-19T23:31:55.943Z,-3.47
2023-02-19T23:34:25.292Z,-3.50
2023-02-19T23:36:53.994Z,-3.44
2023-02-19T23:39:23.599Z,-3.50
2023-02-19T23:41:54.074Z,-3.52
2023-02-19T23:44:23.613Z,-3.54
2023-02-19T23:46:53.500Z,-3.55
2023-02-19T23:49:23.612Z,-3.62
2023-02-19T23:51:52.150Z,-3.57
2023-02-19T23:54:20.617Z,-3.54
2023-02-19T23:56:49.239Z,-3.58
2023-02-19T23:59:17.818Z,-3.54
